Time;durP1;ratioP1;P1;durP2;ratioP2;P2;SDS_P1;SDS_P2;PMS_P1;PMS_P2;Temp;Humidity;BMP_temperature;BMP_pressure;BME280_temperature;BME280_humidity;BME280_pressure;Samples;Min_cycle;Max_cycle;Signal;HPM_P1;HPM_P2
2022/08/11 00:01:11;;;;;;;12.10;5.57;;;26.50;54.20;;;;;;5010522;28;20204;-95
2022/08/11 00:03:44;;;;;;;7.87;4.07;;;26.40;53.90;;;;;;5003243;28;20198;-95
2022/08/11 00:06:14;;;;;;;10.00;4.60;;;26.40;54.20;;;;;;4993893;28;20234;-95
2022/08/11 00:08:50;;;;;;;9.30;4.20;;;26.40;54.10;;;;;;4992482;28;20613;-96
2022/08/11 00:14:44;;;;;;;11.33;4.97;;;26.30;54.70;;;;;;4983139;28;20313;-95
2022/08/11 00:17:14;;;;;;;11.67;5.20;;;26.20;54.30;;;;;;4992203;28;20210;-96
2022/08/11 00:19:46;;;;;;;8.57;4.40;;;26.20;54.40;;;;;;4994414;28;20280;-95
2022/08/11 00:22:39;;;;;;;8.70;4.63;;;26.10;54.40;;;;;;4984642;28;20215;-96
2022/08/11 00:25:11;;;;;;;6.60;3.60;;;26.10;54.60;;;;;;4984971;28;20221;-95
2022/08/11 00:27:40;;;;;;;8.33;4.03;;;26.10;54.70;;;;;;4994467;28;20320;-96
2022/08/11 00:30:12;;;;;;;6.10;3.63;;;26.00;54.60;;;;;;4996786;28;20209;-95
2022/08/11 00:32:44;;;;;;;5.30;3.10;;;26.00;54.80;;;;;;4995966;28;20269;-95
2022/08/11 00:35:15;;;;;;;7.70;4.37;;;26.00;55.00;;;;;;4995018;28;20212;-95
2022/08/11 00:38:04;;;;;;;8.67;4.50;;;25.90;54.90;;;;;;4994058;28;20305;-95
2022/08/11 00:40:42;;;;;;;9.33;4.60;;;25.90;55.10;;;;;;4984641;28;20676;-95
2022/08/11 00:43:47;;;;;;;14.33;5.80;;;25.90;55.20;;;;;;4994420;28;20643;-96
2022/08/11 00:46:33;;;;;;;13.47;5.77;;;25.90;56.20;;;;;;4989295;28;20740;-94
2022/08/11 00:49:16;;;;;;;6.87;4.23;;;25.80;55.40;;;;;;4995978;28;20252;-95
2022/08/11 00:52:08;;;;;;;7.60;3.63;;;25.80;55.50;;;;;;4977162;28;20471;-95
2022/08/11 00:55:15;;;;;;;7.50;4.43;;;25.80;55.70;;;;;;4985569;28;20686;-95
2022/08/11 00:58:20;;;;;;;6.13;3.47;;;25.70;55.60;;;;;;4990152;28;20257;-95
2022/08/11 01:01:09;;;;;;;7.83;4.30;;;25.70;55.60;;;;;;4989642;28;20553;-96
2022/08/11 01:04:25;;;;;;;10.40;5.00;;;25.60;55.60;;;;;;4987474;28;20573;-95
2022/08/11 01:10:16;;;;;;;7.20;4.20;;;25.60;55.80;;;;;;5019243;23;20233;-95
2022/08/11 01:13:01;;;;;;;6.03;3.93;;;25.50;55.80;;;;;;4996585;28;20209;-95
2022/08/11 01:16:07;;;;;;;6.97;3.90;;;25.50;55.90;;;;;;4996450;28;20226;-95
2022/08/11 01:19:16;;;;;;;7.43;4.33;;;25.50;56.00;;;;;;5014714;23;20237;-95
2022/08/11 01:22:43;;;;;;;8.13;4.33;;;25.40;56.00;;;;;;4999867;28;20245;-95
2022/08/11 01:25:55;;;;;;;12.13;5.67;;;25.40;55.80;;;;;;4987403;28;20213;-95
2022/08/11 01:28:59;;;;;;;9.67;4.93;;;25.40;56.00;;;;;;4994159;28;20226;-96
2022/08/11 01:32:02;;;;;;;8.30;4.13;;;25.40;56.20;;;;;;4989292;28;20523;-95
2022/08/11 01:35:29;;;;;;;10.90;5.67;;;25.40;56.30;;;;;;4976874;28;20267;-95
2022/08/11 01:38:38;;;;;;;5.77;3.77;;;25.30;56.00;;;;;;4996533;28;20206;-96
2022/08/11 01:45:16;;;;;;;10.13;4.80;;;25.30;56.40;;;;;;4987052;28;20288;-96
2022/08/11 01:47:52;;;;;;;9.30;4.80;;;25.20;56.30;;;;;;5014721;28;20304;-96
2022/08/11 01:50:48;;;;;;;11.23;4.93;;;25.20;56.20;;;;;;5007122;28;20186;-96
2022/08/11 01:53:30;;;;;;;7.87;3.87;;;25.20;56.30;;;;;;5006088;28;20210;-96
2022/08/11 01:56:14;;;;;;;6.70;3.60;;;25.10;56.30;;;;;;5006430;28;20206;-96
2022/08/11 02:01:21;;;;;;;7.17;4.00;;;25.10;56.10;;;;;;5018656;23;20763;-96
2022/08/11 02:09:08;;;;;;;6.80;3.93;;;25.00;56.20;;;;;;5031794;28;20216;-95
2022/08/11 02:12:03;;;;;;;8.83;4.37;;;25.00;56.70;;;;;;5023478;28;20220;-95
2022/08/11 02:17:41;;;;;;;11.13;5.53;;;24.90;55.90;;;;;;5036905;23;20263;-95
2022/08/11 02:23:47;;;;;;;7.73;4.80;;;24.90;56.60;;;;;;5005597;28;20207;-95
2022/08/11 02:30:06;;;;;;;7.50;4.27;;;24.90;56.70;;;;;;4987297;28;20216;-95
2022/08/11 02:35:40;;;;;;;10.53;5.60;;;24.80;56.60;;;;;;5014457;28;20246;-95
2022/08/11 02:38:18;;;;;;;8.13;4.53;;;24.80;56.60;;;;;;5025997;28;20401;-96
2022/08/11 02:40:57;;;;;;;7.33;3.73;;;24.80;56.80;;;;;;5035116;28;20320;-96
2022/08/11 02:43:44;;;;;;;8.60;4.40;;;24.70;56.70;;;;;;5019584;28;20208;-96
2022/08/11 02:46:28;;;;;;;7.90;4.70;;;24.70;56.90;;;;;;5002648;28;20201;-95
2022/08/11 02:52:05;;;;;;;6.83;4.17;;;24.60;56.80;;;;;;5015313;28;20240;-95
2022/08/11 02:54:42;;;;;;;7.37;3.70;;;24.60;56.80;;;;;;5014258;28;20723;-96
2022/08/11 03:00:07;;;;;;;15.00;6.77;;;24.50;56.70;;;;;;4994008;28;20220;-95
2022/08/11 03:02:53;;;;;;;12.83;6.03;;;24.50;56.70;;;;;;5008928;28;20214;-94
2022/08/11 03:05:38;;;;;;;12.87;5.90;;;24.50;57.00;;;;;;5009985;28;20200;-96
2022/08/11 03:08:31;;;;;;;12.40;5.73;;;24.40;57.00;;;;;;4998713;28;20256;-95
2022/08/11 03:19:52;;;;;;;9.43;4.97;;;24.40;56.90;;;;;;4991525;28;20288;-94
2022/08/11 03:22:49;;;;;;;13.90;5.87;;;24.30;56.90;;;;;;5011999;28;20216;-95
2022/08/11 03:25:30;;;;;;;7.80;4.60;;;24.30;56.60;;;;;;5011358;28;20262;-95
2022/08/11 03:28:07;;;;;;;6.93;3.80;;;24.30;56.90;;;;;;5017439;28;20252;-96
2022/08/11 03:30:43;;;;;;;13.70;5.93;;;24.20;56.80;;;;;;5013440;28;20266;-95
2022/08/11 03:36:45;;;;;;;6.73;4.37;;;24.20;56.90;;;;;;4993666;28;20684;-95
2022/08/11 03:39:20;;;;;;;7.83;4.80;;;24.10;57.00;;;;;;4995512;28;20200;-95
2022/08/11 03:41:54;;;;;;;11.33;6.00;;;24.10;57.00;;;;;;5002795;28;20260;-95
2022/08/11 03:48:10;;;;;;;9.17;4.63;;;24.00;57.30;;;;;;4991029;23;20266;-96
2022/08/11 03:51:08;;;;;;;8.63;4.73;;;24.00;57.40;;;;;;4968546;28;20209;-96
2022/08/11 03:54:11;;;;;;;10.33;5.37;;;24.00;57.40;;;;;;4986769;28;20234;-95
2022/08/11 03:57:35;;;;;;;7.63;4.23;;;23.90;57.40;;;;;;4966644;28;20213;-96
2022/08/11 04:00:52;;;;;;;7.60;4.40;;;23.90;57.30;;;;;;4977142;28;20214;-96
2022/08/11 04:04:04;;;;;;;9.10;4.83;;;23.80;57.30;;;;;;4979275;28;20234;-96
2022/08/11 04:07:09;;;;;;;6.27;4.10;;;23.80;57.30;;;;;;4989513;28;20276;-96
2022/08/11 04:10:16;;;;;;;15.20;6.10;;;23.80;57.60;;;;;;4994485;28;20191;-96
2022/08/11 04:13:09;;;;;;;12.67;6.07;;;23.70;57.50;;;;;;4958201;28;20199;-95
2022/08/11 04:16:06;;;;;;;7.13;4.57;;;23.70;57.10;;;;;;4987888;28;20221;-95
2022/08/11 04:19:14;;;;;;;15.67;7.03;;;23.70;57.30;;;;;;4975649;28;20190;-95
2022/08/11 04:28:40;;;;;;;6.17;4.30;;;23.60;57.40;;;;;;5146825;27;20535;-94
2022/08/11 04:31:37;;;;;;;7.47;4.30;;;23.60;57.90;;;;;;5128219;28;20198;-94
2022/08/11 04:34:57;;;;;;;9.70;4.30;;;23.50;57.80;;;;;;5035550;28;20209;-94
2022/08/11 04:37:59;;;;;;;8.27;4.70;;;23.50;57.90;;;;;;5096111;28;20213;-94
2022/08/11 04:40:54;;;;;;;8.57;5.10;;;23.50;57.80;;;;;;5113059;28;20223;-94
2022/08/11 04:43:57;;;;;;;11.67;5.57;;;23.50;57.60;;;;;;5115994;28;20200;-95
2022/08/11 05:02:36;;;;;;;10.73;6.10;;;23.30;58.30;;;;;;5149125;27;20267;-96
2022/08/11 05:05:34;;;;;;;6.00;4.13;;;23.30;58.30;;;;;;5140788;28;20194;-96
2022/08/11 05:08:41;;;;;;;7.87;4.03;;;23.30;58.30;;;;;;5133734;28;20225;-96
2022/08/11 05:11:43;;;;;;;9.43;4.77;;;23.30;58.40;;;;;;5131319;28;20197;-96
2022/08/11 05:35:27;;;;;;;6.53;4.43;;;23.20;58.80;;;;;;5131222;28;20208;-94
2022/08/11 05:57:56;;;;;;;7.07;4.23;;;23.30;59.10;;;;;;5116933;28;20259;-96
2022/08/11 06:00:30;;;;;;;7.40;4.53;;;23.30;59.20;;;;;;5117621;28;20210;-95
2022/08/11 06:03:06;;;;;;;9.10;5.30;;;23.40;59.10;;;;;;5117471;28;20241;-95
2022/08/11 06:05:35;;;;;;;11.93;6.37;;;23.40;58.90;;;;;;5121462;28;20202;-95
2022/08/11 06:08:04;;;;;;;12.53;6.03;;;23.40;58.50;;;;;;5123239;28;20291;-95
2022/08/11 06:10:41;;;;;;;8.90;5.47;;;23.40;58.40;;;;;;5121513;28;20198;-95
2022/08/11 06:13:09;;;;;;;10.07;5.70;;;23.40;58.70;;;;;;5102683;28;20202;-96
2022/08/11 06:15:46;;;;;;;8.07;5.40;;;23.40;58.50;;;;;;5107441;28;20198;-96
2022/08/11 06:18:24;;;;;;;9.10;5.53;;;23.50;59.10;;;;;;5116705;28;20210;-95
2022/08/11 06:20:53;;;;;;;5.63;4.20;;;23.60;58.70;;;;;;5116340;28;20247;-94
2022/08/11 06:23:25;;;;;;;7.90;4.70;;;23.60;58.60;;;;;;5115640;28;20881;-96
2022/08/11 06:25:56;;;;;;;10.50;5.93;;;23.60;58.50;;;;;;5106448;28;20271;-95
2022/08/11 06:28:32;;;;;;;9.53;5.97;;;23.60;58.50;;;;;;5116281;28;20216;-96
2022/08/11 06:31:01;;;;;;;6.50;4.80;;;23.70;58.60;;;;;;5115984;28;20202;-96
2022/08/11 06:33:38;;;;;;;7.00;4.47;;;23.70;58.60;;;;;;5115865;28;20227;-95
2022/08/11 06:36:12;;;;;;;10.10;6.00;;;23.80;58.60;;;;;;5115933;28;20240;-95
2022/08/11 06:38:53;;;;;;;6.60;4.40;;;23.80;58.20;;;;;;5114886;28;20216;-95
2022/08/11 06:41:30;;;;;;;8.90;5.47;;;23.90;58.40;;;;;;5115190;28;20218;-96
2022/08/11 06:44:09;;;;;;;7.17;4.93;;;23.90;58.40;;;;;;5116100;28;20217;-96
2022/08/11 06:46:40;;;;;;;9.00;5.67;;;24.00;58.10;;;;;;5115468;28;20283;-95
2022/08/11 06:52:00;;;;;;;7.37;4.53;;;24.10;58.20;;;;;;5115229;28;20190;-94
2022/08/11 06:54:40;;;;;;;8.47;4.90;;;24.10;58.00;;;;;;5115733;28;20197;-95
2022/08/11 07:00:28;;;;;;;10.03;5.93;;;24.20;57.60;;;;;;5112610;28;20200;-96
2022/08/11 07:03:03;;;;;;;9.90;5.13;;;24.30;57.60;;;;;;5109686;28;20217;-95
2022/08/11 07:05:43;;;;;;;10.47;6.07;;;24.30;57.50;;;;;;5112901;28;20702;-94
2022/08/11 07:17:48;;;;;;;10.80;5.87;;;24.60;57.30;;;;;;5063716;28;20217;-96
2022/08/11 07:28:57;;;;;;;12.77;5.93;;;24.80;57.30;;;;;;5110927;28;20201;-94
2022/08/11 07:31:34;;;;;;;11.17;6.03;;;24.80;57.10;;;;;;5113535;28;20194;-96
2022/08/11 07:34:12;;;;;;;9.40;5.60;;;24.90;56.80;;;;;;5108002;28;20198;-95
2022/08/11 07:36:42;;;;;;;10.90;6.50;;;24.90;56.70;;;;;;5113098;28;20698;-95
2022/08/11 07:39:19;;;;;;;10.57;6.20;;;25.00;56.90;;;;;;5111576;28;20195;-95
2022/08/11 07:41:49;;;;;;;10.33;5.13;;;25.10;56.70;;;;;;5112600;28;20236;-95
2022/08/11 07:44:17;;;;;;;18.17;7.63;;;25.20;56.80;;;;;;5126362;28;20216;-95
2022/08/11 07:52:40;;;;;;;10.87;6.07;;;25.30;56.60;;;;;;5122449;28;20285;-95
2022/08/11 07:55:15;;;;;;;7.43;4.93;;;25.40;56.50;;;;;;5114987;28;20198;-94
2022/08/11 08:18:02;;;;;;;10.27;5.03;;;26.10;55.90;;;;;;5112511;28;20784;-96
2022/08/11 08:20:34;;;;;;;11.63;5.93;;;26.20;55.30;;;;;;5077273;28;20198;-95
2022/08/11 08:23:04;;;;;;;8.87;5.07;;;26.30;55.20;;;;;;5113301;28;20205;-95
2022/08/11 08:25:33;;;;;;;13.97;6.13;;;26.30;55.00;;;;;;5112019;28;20220;-93
2022/08/11 08:28:06;;;;;;;14.97;5.83;;;26.40;54.80;;;;;;5101286;28;20663;-93
2022/08/11 08:30:49;;;;;;;16.73;6.20;;;26.50;54.60;;;;;;5105784;28;20233;-93
2022/08/11 08:36:41;;;;;;;9.23;5.33;;;26.70;54.40;;;;;;5105532;28;20267;-95
2022/08/11 08:39:08;;;;;;;12.30;6.10;;;26.80;54.00;;;;;;5112140;28;20194;-94
2022/08/11 08:41:38;;;;;;;10.50;5.67;;;27.00;54.20;;;;;;5111004;28;20255;-93
2022/08/11 08:44:11;;;;;;;12.20;5.77;;;27.10;53.80;;;;;;5112080;28;20268;-92
2022/08/11 08:46:44;;;;;;;10.50;5.57;;;27.20;53.50;;;;;;5112421;28;20195;-94
2022/08/11 08:49:16;;;;;;;7.30;4.60;;;27.30;53.40;;;;;;5138290;22;20236;-92
2022/08/11 08:52:08;;;;;;;6.70;4.53;;;27.40;53.20;;;;;;5050277;28;20197;-92
2022/08/11 08:54:41;;;;;;;7.97;4.47;;;27.50;53.10;;;;;;5041315;28;20200;-94
2022/08/11 08:57:17;;;;;;;14.93;5.40;;;27.70;52.90;;;;;;5050225;28;20546;-95
2022/08/11 09:00:05;;;;;;;9.03;5.03;;;27.80;52.50;;;;;;5046212;28;20200;-95
2022/08/11 09:02:33;;;;;;;9.13;4.87;;;27.90;51.90;;;;;;5048688;28;20200;-93
2022/08/11 09:05:11;;;;;;;13.10;6.57;;;28.10;52.60;;;;;;5049763;28;20196;-94
2022/08/11 09:07:39;;;;;;;9.17;5.00;;;28.30;51.30;;;;;;5039790;28;20251;-93
2022/08/11 09:10:08;;;;;;;10.43;5.57;;;28.50;52.00;;;;;;5042366;28;20307;-92
2022/08/11 09:18:19;;;;;;;15.43;6.50;;;29.40;50.40;;;;;;5033641;28;20265;-94
2022/08/11 09:20:48;;;;;;;12.63;6.30;;;29.70;50.50;;;;;;5069261;28;20253;-94
2022/08/11 09:28:49;;;;;;;7.03;3.97;;;30.60;49.30;;;;;;5071792;28;20262;-95
2022/08/11 09:31:21;;;;;;;10.38;4.65;;;30.90;48.30;;;;;;5073108;28;20249;-93
2022/08/11 09:33:56;;;;;;;5.03;3.50;;;31.20;47.20;;;;;;5069961;28;20212;-94
2022/08/11 09:45:13;;;;;;;8.30;4.15;;;32.30;46.20;;;;;;4992876;28;20262;-96
2022/08/11 09:51:32;;;;;;;11.70;5.47;;;32.90;43.40;;;;;;5100131;22;20227;-95
2022/08/11 09:54:36;;;;;;;10.20;4.15;;;33.20;43.70;;;;;;5080169;28;20202;-95
2022/08/11 10:00:02;;;;;;;8.63;4.40;;;33.80;43.50;;;;;;5093299;28;20209;-95
2022/08/11 10:02:31;;;;;;;8.20;4.75;;;34.00;43.20;;;;;;5098280;28;20202;-95
2022/08/11 10:10:26;;;;;;;11.65;5.45;;;34.60;41.80;;;;;;5038913;22;20241;-95
2022/08/11 10:13:05;;;;;;;10.02;5.22;;;34.80;39.40;;;;;;5017925;28;20205;-95
2022/08/11 10:15:41;;;;;;;11.65;5.85;;;35.00;39.30;;;;;;5032815;22;20319;-94
2022/08/11 10:21:04;;;;;;;5.88;4.03;;;35.30;39.40;;;;;;4997447;28;20181;-96
2022/08/11 10:35:12;;;;;;;4.50;3.30;;;36.10;38.30;;;;;;4988696;28;20212;-95
2022/08/11 10:44:05;;;;;;;6.78;3.63;;;36.70;36.20;;;;;;4987516;28;20214;-92
2022/08/11 10:59:21;;;;;;;7.25;2.97;;;37.70;35.20;;;;;;5047393;28;20204;-96
2022/08/11 11:01:53;;;;;;;6.05;3.33;;;37.80;34.70;;;;;;5026264;28;20216;-96
2022/08/11 11:04:34;;;;;;;6.15;2.95;;;37.90;35.30;;;;;;5040728;28;20254;-96
2022/08/11 11:10:35;;;;;;;4.85;3.47;;;38.20;33.60;;;;;;4971991;28;20212;-96
2022/08/11 11:19:48;;;;;;;5.10;3.33;;;38.70;32.80;;;;;;5034350;28;20254;-96
2022/08/11 11:31:59;;;;;;;6.82;3.88;;;39.20;31.70;;;;;;5152586;22;20225;-93
2022/08/11 11:34:42;;;;;;;7.40;3.97;;;39.30;32.00;;;;;;5038519;28;20203;-93
2022/08/11 11:37:17;;;;;;;8.73;3.15;;;39.40;31.70;;;;;;5047260;28;20687;-96
2022/08/11 11:39:47;;;;;;;4.88;3.33;;;39.40;31.40;;;;;;5042952;28;20251;-96
2022/08/11 11:42:17;;;;;;;10.27;3.50;;;39.40;31.90;;;;;;5023875;28;20255;-96
2022/08/11 11:44:54;;;;;;;9.38;4.50;;;39.50;31.90;;;;;;5016664;28;20209;-94
2022/08/11 11:47:25;;;;;;;4.88;3.40;;;39.50;30.80;;;;;;5046975;28;20200;-96
2022/08/11 11:49:57;;;;;;;5.85;3.80;;;39.60;31.60;;;;;;5033598;28;20212;-89
2022/08/11 11:52:34;;;;;;;6.05;4.13;;;39.60;31.40;;;;;;5036698;28;20200;-94
2022/08/11 11:55:17;;;;;;;7.65;4.00;;;39.70;30.70;;;;;;5038247;28;20259;-96
2022/08/11 12:03:32;;;;;;;8.23;4.28;;;39.70;30.40;;;;;;5040064;28;20204;-93
2022/08/11 12:06:02;;;;;;;10.95;4.22;;;39.80;30.90;;;;;;5055202;22;20252;-94
2022/08/11 12:08:35;;;;;;;5.47;3.55;;;39.90;30.50;;;;;;5016364;28;20225;-95
2022/08/11 12:14:04;;;;;;;5.88;3.38;;;39.90;29.70;;;;;;5011407;28;20614;-95
2022/08/11 12:19:51;;;;;;;7.00;4.22;;;40.00;29.80;;;;;;4997758;28;20217;-94
2022/08/11 12:28:15;;;;;;;6.78;3.92;;;40.10;28.90;;;;;;5004782;28;20239;-93
2022/08/11 12:30:46;;;;;;;5.43;3.13;;;40.10;29.40;;;;;;5009050;28;20247;-96
2022/08/11 12:33:14;;;;;;;5.47;3.50;;;40.00;29.30;;;;;;5009623;28;20335;-95
2022/08/11 12:35:51;;;;;;;6.03;4.20;;;40.10;29.20;;;;;;5002253;28;20297;-92
2022/08/11 12:38:26;;;;;;;7.97;5.03;;;40.10;28.90;;;;;;4994371;28;20288;-95
2022/08/11 12:46:33;;;;;;;6.43;3.72;;;40.20;29.20;;;;;;5010961;28;20196;-93
2022/08/11 12:52:07;;;;;;;9.85;4.82;;;40.30;29.00;;;;;;4967845;28;20208;-91
2022/08/11 12:54:44;;;;;;;5.28;3.78;;;40.40;28.60;;;;;;5015108;28;20212;-95
2022/08/11 13:06:13;;;;;;;5.00;2.50;;;40.80;28.80;;;;;;5014188;28;20247;-96
2022/08/11 13:08:53;;;;;;;4.25;3.22;;;40.90;28.50;;;;;;5020922;28;20233;-92
2022/08/11 13:20:26;;;;;;;6.68;4.30;;;41.30;28.30;;;;;;5009768;28;20760;-95
2022/08/11 13:22:55;;;;;;;4.40;3.35;;;41.40;27.80;;;;;;5001208;28;20264;-94
2022/08/11 13:25:28;;;;;;;6.32;3.47;;;41.40;28.30;;;;;;5008851;28;20233;-92
2022/08/11 13:28:03;;;;;;;4.15;3.45;;;41.50;27.70;;;;;;5016027;28;20663;-94
2022/08/11 13:33:19;;;;;;;6.22;3.95;;;41.60;27.60;;;;;;4999939;28;20205;-94
2022/08/11 13:35:48;;;;;;;6.18;3.65;;;41.70;27.80;;;;;;5014325;28;20373;-94
2022/08/11 13:38:17;;;;;;;4.55;3.42;;;41.70;27.80;;;;;;5014879;28;20279;-95
2022/08/11 13:40:51;;;;;;;4.03;3.22;;;41.80;27.60;;;;;;5013459;28;20675;-94
2022/08/11 13:43:23;;;;;;;5.63;4.00;;;41.90;26.90;;;;;;5006944;28;20216;-94
2022/08/11 13:46:17;;;;;;;4.82;3.60;;;41.90;26.60;;;;;;4998366;28;20209;-93
2022/08/11 13:48:43;;;;;;;7.93;4.85;;;41.90;26.90;;;;;;5010810;28;20229;-92
2022/08/11 13:51:31;;;;;;;7.05;3.75;;;42.00;26.90;;;;;;5004876;28;20201;-93
2022/08/11 13:54:01;;;;;;;6.75;3.42;;;42.10;27.00;;;;;;5014197;28;20529;-94
2022/08/11 13:56:30;;;;;;;5.20;3.38;;;42.10;26.70;;;;;;5016782;28;20205;-95
2022/08/11 14:02:02;;;;;;;6.47;4.18;;;42.20;26.30;;;;;;4989686;28;20212;-92
2022/08/11 14:04:41;;;;;;;5.60;3.83;;;42.20;26.30;;;;;;5012086;28;20233;-93
2022/08/11 14:07:13;;;;;;;7.72;4.65;;;42.30;26.10;;;;;;5030399;28;20205;-94
2022/08/11 14:09:45;;;;;;;9.15;5.43;;;42.30;26.10;;;;;;5016186;28;20217;-95
2022/08/11 14:15:15;;;;;;;4.88;3.38;;;42.40;25.80;;;;;;5011755;28;20201;-94
2022/08/11 14:17:43;;;;;;;4.85;4.13;;;42.40;25.80;;;;;;5011996;28;20241;-92
2022/08/11 14:20:16;;;;;;;6.25;4.93;;;42.40;25.80;;;;;;5009572;28;20210;-92
2022/08/11 14:22:45;;;;;;;9.23;4.72;;;42.50;25.40;;;;;;5006455;28;20256;-92
2022/08/11 14:25:15;;;;;;;7.45;5.40;;;42.50;25.50;;;;;;5020298;28;20202;-93
2022/08/11 14:27:48;;;;;;;7.03;5.18;;;42.60;25.40;;;;;;5032616;28;20209;-94
2022/08/11 14:33:01;;;;;;;6.47;3.83;;;42.60;25.20;;;;;;5014983;28;20202;-93
2022/08/11 14:35:31;;;;;;;2.90;2.70;;;42.50;25.30;;;;;;5017338;28;20206;-92
2022/08/11 14:38:01;;;;;;;5.97;3.97;;;42.50;25.10;;;;;;5014621;28;20308;-93
2022/08/11 14:48:51;;;;;;;9.05;4.80;;;42.50;25.50;;;;;;5010714;28;20271;-92
2022/08/11 14:51:22;;;;;;;11.50;4.70;;;42.50;25.50;;;;;;5011635;28;20216;-95
2022/08/11 14:56:34;;;;;;;7.22;5.32;;;42.50;25.20;;;;;;5009836;28;20212;-92
2022/08/11 14:56:37;;;;;;;7.00;4.90;;;42.50;25.10;;;;;;5010998;28;20268;-93
2022/08/11 14:59:06;;;;;;;10.10;5.80;;;42.50;25.70;;;;;;5002590;28;20205;-91
2022/08/11 15:04:20;;;;;;;7.80;4.43;;;42.60;24.90;;;;;;5009857;28;20657;-93
2022/08/11 15:06:47;;;;;;;4.78;3.85;;;42.50;24.90;;;;;;5001708;28;20215;-92
2022/08/11 15:09:15;;;;;;;6.30;3.38;;;42.50;25.00;;;;;;5000805;28;20633;-91
2022/08/11 15:17:20;;;;;;;5.78;4.53;;;42.20;24.80;;;;;;5020749;28;20216;-92
2022/08/11 15:25:16;;;;;;;5.90;3.88;;;41.70;25.10;;;;;;5011049;28;20264;-90
2022/08/11 15:39:13;;;;;;;5.25;3.67;;;40.90;26.80;;;;;;5011466;28;20244;-93
2022/08/11 15:47:36;;;;;;;4.78;3.60;;;40.50;27.20;;;;;;5017643;28;20317;-91
2022/08/11 15:50:05;;;;;;;6.18;3.65;;;40.40;27.90;;;;;;5010160;28;20694;-92
2022/08/11 15:52:46;;;;;;;7.18;4.65;;;40.30;27.60;;;;;;5022478;28;20721;-89
2022/08/11 15:55:16;;;;;;;7.65;3.33;;;40.20;27.80;;;;;;5022492;28;20572;-92
2022/08/11 16:06:26;;;;;;;6.78;3.45;;;39.70;28.20;;;;;;5030620;28;20207;-91
2022/08/11 16:08:55;;;;;;;7.70;3.70;;;39.60;28.20;;;;;;5030666;28;20224;-91
2022/08/11 16:11:29;;;;;;;6.28;3.28;;;39.50;28.30;;;;;;5031472;28;20726;-93
2022/08/11 16:16:42;;;;;;;7.18;3.40;;;39.40;28.50;;;;;;5019475;28;20205;-93
2022/08/11 16:19:22;;;;;;;9.95;4.85;;;39.30;28.60;;;;;;5019176;28;20625;-92
2022/08/11 16:21:53;;;;;;;7.10;4.07;;;39.20;28.80;;;;;;5010135;28;20205;-92
2022/08/11 16:24:24;;;;;;;8.13;3.95;;;39.20;28.70;;;;;;5016966;28;20208;-94
2022/08/11 16:26:54;;;;;;;6.70;3.97;;;39.10;28.90;;;;;;5032771;28;20568;-91
2022/08/11 16:29:25;;;;;;;6.95;3.85;;;39.00;28.90;;;;;;5027017;28;20279;-90
2022/08/11 16:40:17;;;;;;;6.05;3.85;;;38.70;29.20;;;;;;5009109;28;20251;-91
2022/08/11 16:48:23;;;;;;;8.05;4.40;;;38.60;29.30;;;;;;5008148;28;20205;-92
2022/08/11 16:50:52;;;;;;;8.05;3.97;;;38.50;29.30;;;;;;5006403;28;20229;-92
2022/08/11 16:53:20;;;;;;;9.35;4.60;;;38.40;29.40;;;;;;5005036;28;20282;-92
2022/08/11 16:55:48;;;;;;;7.07;3.67;;;38.30;29.40;;;;;;5008122;28;20300;-91
2022/08/11 17:01:16;;;;;;;7.82;4.28;;;38.20;29.50;;;;;;4965902;28;20718;-94
2022/08/11 17:16:05;;;;;;;8.27;3.88;;;37.80;29.90;;;;;;5009063;28;20256;-91
2022/08/11 17:17:56;;;;;;;7.55;3.88;;;37.60;29.80;;;;;;4992250;28;20777;-92
2022/08/11 17:20:24;;;;;;;6.45;3.85;;;37.50;29.80;;;;;;5013607;28;20197;-93
2022/08/11 17:25:41;;;;;;;5.47;3.42;;;37.30;30.30;;;;;;5008675;28;20232;-93
2022/08/11 17:28:10;;;;;;;8.52;4.63;;;37.10;30.30;;;;;;5006442;28;20189;-93
2022/08/11 17:36:10;;;;;;;10.18;5.03;;;36.80;30.80;;;;;;5003411;28;20208;-93
2022/08/11 17:38:45;;;;;;;4.15;2.83;;;36.70;30.90;;;;;;5014318;28;20261;-92
2022/08/11 17:49:36;;;;;;;13.70;4.57;;;36.30;31.50;;;;;;5004655;28;20313;-91
2022/08/11 18:00:25;;;;;;;12.30;5.05;;;35.80;32.10;;;;;;5012728;28;20247;-92
2022/08/11 18:05:46;;;;;;;7.95;3.28;;;35.60;32.60;;;;;;5014293;28;20201;-93
